Argyle's Hourly Summary for Friday, July 6, 2018
Hour Temp
(f)
RH
(%)
Solar Rad.
(MJ/m2)
Rainfall
(in)
Wind
(mph)
7/6/2018 12:00 AM 84 61 0 0 3.23
7/6/2018 1:00 AM 83 65 0 0 0.47
7/6/2018 2:00 AM 80 71 0 0 0
7/6/2018 3:00 AM 77 79 0 0 0
7/6/2018 4:00 AM 76 81 0 0 0
7/6/2018 5:00 AM 75 86 0 0 0.01
7/6/2018 6:00 AM 75 90 0 0 0.29
7/6/2018 7:00 AM 75 88 0.04 0 0.98
7/6/2018 8:00 AM 78 78 0.36 0 2.27
7/6/2018 9:00 AM 82 68 1.12 0 3.67
7/6/2018 10:00 AM 85 59 1.8 0 3.47
7/6/2018 11:00 AM 89 49 2.47 0 4.07
7/6/2018 12:00 PM 90 47 1.87 0 4.26
7/6/2018 1:00 PM 92 43 2.39 0 4.76
7/6/2018 2:00 PM 94 37 2.73 0 4.95
7/6/2018 3:00 PM 96 35 2.98 0 5.42
7/6/2018 4:00 PM 97 33 2.91 0 5.38
7/6/2018 5:00 PM 87 34 0.85 0 7.12
7/6/2018 6:00 PM 86 55 1.22 0 5.93
7/6/2018 7:00 PM 87 51 1.1 0 4.97
7/6/2018 8:00 PM 86 50 0.16 0 4.51
7/6/2018 9:00 PM 81 55 0.01 0 4.41
7/6/2018 10:00 PM 77 80 0 0 3.09
7/6/2018 11:00 PM 77 75 0 0 0.61
Data Summary 83 61 22.01 0.00 3.08